sensor_id;sensor_type;location;lat;lon;timestamp;temperature;humidity
19279;DHT22;9773;47.062;15.446;2023-03-07T00:00:10;6.50;99.90
19279;DHT22;9773;47.062;15.446;2023-03-07T00:02:37;6.50;99.90
19279;DHT22;9773;47.062;15.446;2023-03-07T00:05:03;6.40;99.90
19279;DHT22;9773;47.062;15.446;2023-03-07T00:07:29;6.40;99.90
19279;DHT22;9773;47.062;15.446;2023-03-07T00:09:56;6.40;99.90
19279;DHT22;9773;47.062;15.446;2023-03-07T00:12:22;6.30;99.90
19279;DHT22;9773;47.062;15.446;2023-03-07T00:14:48;6.30;99.90
19279;DHT22;9773;47.062;15.446;2023-03-07T00:17:14;6.30;99.90
19279;DHT22;9773;47.062;15.446;2023-03-07T00:19:43;6.30;99.90
19279;DHT22;9773;47.062;15.446;2023-03-07T00:22:10;6.30;99.90
19279;DHT22;9773;47.062;15.446;2023-03-07T00:24:36;6.30;99.90
19279;DHT22;9773;47.062;15.446;2023-03-07T00:27:02;6.30;99.90
19279;DHT22;9773;47.062;15.446;2023-03-07T00:29:28;6.30;99.90
19279;DHT22;9773;47.062;15.446;2023-03-07T00:31:54;6.30;99.90
19279;DHT22;9773;47.062;15.446;2023-03-07T00:34:20;6.30;99.90
19279;DHT22;9773;47.062;15.446;2023-03-07T00:36:45;6.30;99.90
19279;DHT22;9773;47.062;15.446;2023-03-07T00:39:11;6.30;99.90
19279;DHT22;9773;47.062;15.446;2023-03-07T00:41:37;6.20;99.90
19279;DHT22;9773;47.062;15.446;2023-03-07T00:44:03;6.20;99.90
19279;DHT22;9773;47.062;15.446;2023-03-07T00:46:29;6.20;99.90
19279;DHT22;9773;47.062;15.446;2023-03-07T00:48:54;6.20;99.90
19279;DHT22;9773;47.062;15.446;2023-03-07T00:51:22;6.20;99.90
19279;DHT22;9773;47.062;15.446;2023-03-07T00:53:48;6.20;99.90
19279;DHT22;9773;47.062;15.446;2023-03-07T00:56:17;6.10;99.90
19279;DHT22;9773;47.062;15.446;2023-03-07T00:58:44;6.00;99.90
19279;DHT22;9773;47.062;15.446;2023-03-07T01:01:11;6.00;99.90
19279;DHT22;9773;47.062;15.446;2023-03-07T01:03:37;5.80;99.90
19279;DHT22;9773;47.062;15.446;2023-03-07T01:06:06;5.90;99.90
19279;DHT22;9773;47.062;15.446;2023-03-07T01:08:32;5.90;99.90
19279;DHT22;9773;47.062;15.446;2023-03-07T01:11:00;5.90;99.90
19279;DHT22;9773;47.062;15.446;2023-03-07T01:13:27;5.90;99.90
19279;DHT22;9773;47.062;15.446;2023-03-07T01:15:53;5.90;99.90
19279;DHT22;9773;47.062;15.446;2023-03-07T01:18:18;6.00;99.90
19279;DHT22;9773;47.062;15.446;2023-03-07T01:20:44;6.00;99.90
19279;DHT22;9773;47.062;15.446;2023-03-07T01:23:10;6.00;99.90
19279;DHT22;9773;47.062;15.446;2023-03-07T01:25:39;6.00;99.90
19279;DHT22;9773;47.062;15.446;2023-03-07T01:28:05;6.10;99.90
19279;DHT22;9773;47.062;15.446;2023-03-07T01:30:32;6.00;99.90
19279;DHT22;9773;47.062;15.446;2023-03-07T01:32:59;6.10;99.90
19279;DHT22;9773;47.062;15.446;2023-03-07T01:35:26;6.10;99.90
19279;DHT22;9773;47.062;15.446;2023-03-07T01:37:53;6.10;99.90
19279;DHT22;9773;47.062;15.446;2023-03-07T01:40:20;6.00;99.90
19279;DHT22;9773;47.062;15.446;2023-03-07T01:42:46;6.00;99.90
19279;DHT22;9773;47.062;15.446;2023-03-07T01:47:39;6.00;99.90
19279;DHT22;9773;47.062;15.446;2023-03-07T01:50:14;5.80;99.90
19279;DHT22;9773;47.062;15.446;2023-03-07T01:52:47;5.80;99.90
19279;DHT22;9773;47.062;15.446;2023-03-07T01:55:18;5.90;99.90
19279;DHT22;9773;47.062;15.446;2023-03-07T01:57:46;5.80;99.90
19279;DHT22;9773;47.062;15.446;2023-03-07T02:00:15;5.70;99.90
19279;DHT22;9773;47.062;15.446;2023-03-07T02:02:46;5.70;99.90
19279;DHT22;9773;47.062;15.446;2023-03-07T02:05:21;5.70;99.90
19279;DHT22;9773;47.062;15.446;2023-03-07T02:07:50;5.80;99.90
19279;DHT22;9773;47.062;15.446;2023-03-07T02:10:19;5.90;99.90
19279;DHT22;9773;47.062;15.446;2023-03-07T02:12:46;5.90;99.90
19279;DHT22;9773;47.062;15.446;2023-03-07T02:15:13;5.90;99.90
19279;DHT22;9773;47.062;15.446;2023-03-07T02:17:40;5.80;99.90
19279;DHT22;9773;47.062;15.446;2023-03-07T02:22:55;5.80;99.90
19279;DHT22;9773;47.062;15.446;2023-03-07T02:25:57;5.60;99.90
19279;DHT22;9773;47.062;15.446;2023-03-07T02:28:26;5.60;99.90
19279;DHT22;9773;47.062;15.446;2023-03-07T02:31:05;5.50;99.90
19279;DHT22;9773;47.062;15.446;2023-03-07T02:33:31;5.40;99.90
19279;DHT22;9773;47.062;15.446;2023-03-07T02:36:02;5.50;99.90
19279;DHT22;9773;47.062;15.446;2023-03-07T02:38:32;5.60;99.90
19279;DHT22;9773;47.062;15.446;2023-03-07T02:41:01;5.60;99.90
19279;DHT22;9773;47.062;15.446;2023-03-07T02:43:28;5.70;99.90
19279;DHT22;9773;47.062;15.446;2023-03-07T02:45:53;5.80;99.90
19279;DHT22;9773;47.062;15.446;2023-03-07T02:48:20;5.80;99.90
19279;DHT22;9773;47.062;15.446;2023-03-07T02:50:47;5.80;99.90
19279;DHT22;9773;47.062;15.446;2023-03-07T02:53:13;5.70;99.90
19279;DHT22;9773;47.062;15.446;2023-03-07T02:55:38;5.60;99.90
19279;DHT22;9773;47.062;15.446;2023-03-07T02:58:04;5.70;99.90
19279;DHT22;9773;47.062;15.446;2023-03-07T03:00:30;5.60;99.90
19279;DHT22;9773;47.062;15.446;2023-03-07T03:02:56;5.60;99.90
19279;DHT22;9773;47.062;15.446;2023-03-07T03:05:22;5.70;99.90
19279;DHT22;9773;47.062;15.446;2023-03-07T03:07:47;5.60;99.90
19279;DHT22;9773;47.062;15.446;2023-03-07T03:10:14;5.60;99.90
19279;DHT22;9773;47.062;15.446;2023-03-07T03:12:39;5.50;99.90
19279;DHT22;9773;47.062;15.446;2023-03-07T03:15:06;5.60;99.90
19279;DHT22;9773;47.062;15.446;2023-03-07T03:17:32;5.60;99.90
19279;DHT22;9773;47.062;15.446;2023-03-07T03:19:58;5.40;99.90
19279;DHT22;9773;47.062;15.446;2023-03-07T03:22:23;5.40;99.90
19279;DHT22;9773;47.062;15.446;2023-03-07T03:24:49;5.40;99.90
19279;DHT22;9773;47.062;15.446;2023-03-07T03:27:15;5.40;99.90
19279;DHT22;9773;47.062;15.446;2023-03-07T03:29:41;5.40;99.90
19279;DHT22;9773;47.062;15.446;2023-03-07T03:32:06;5.50;99.90
19279;DHT22;9773;47.062;15.446;2023-03-07T03:34:32;5.50;99.90
19279;DHT22;9773;47.062;15.446;2023-03-07T03:36:58;5.50;99.90
19279;DHT22;9773;47.062;15.446;2023-03-07T03:39:24;5.60;99.90
19279;DHT22;9773;47.062;15.446;2023-03-07T03:41:50;5.50;99.90
19279;DHT22;9773;47.062;15.446;2023-03-07T03:44:15;5.40;99.90
19279;DHT22;9773;47.062;15.446;2023-03-07T03:46:41;5.50;99.90
19279;DHT22;9773;47.062;15.446;2023-03-07T03:49:09;5.60;99.90
19279;DHT22;9773;47.062;15.446;2023-03-07T03:51:35;5.60;99.90
19279;DHT22;9773;47.062;15.446;2023-03-07T03:54:01;5.70;99.90
19279;DHT22;9773;47.062;15.446;2023-03-07T03:56:27;5.70;99.90
19279;DHT22;9773;47.062;15.446;2023-03-07T03:58:55;5.60;99.90
19279;DHT22;9773;47.062;15.446;2023-03-07T04:01:23;5.70;99.90
19279;DHT22;9773;47.062;15.446;2023-03-07T04:03:51;5.70;99.90
19279;DHT22;9773;47.062;15.446;2023-03-07T04:06:19;5.70;99.90
19279;DHT22;9773;47.062;15.446;2023-03-07T04:08:45;5.70;99.90
19279;DHT22;9773;47.062;15.446;2023-03-07T04:11:12;5.60;99.90
19279;DHT22;9773;47.062;15.446;2023-03-07T04:13:38;5.60;99.90
19279;DHT22;9773;47.062;15.446;2023-03-07T04:16:04;5.70;99.90
19279;DHT22;9773;47.062;15.446;2023-03-07T04:18:30;5.70;99.90
19279;DHT22;9773;47.062;15.446;2023-03-07T04:20:56;5.70;99.90
19279;DHT22;9773;47.062;15.446;2023-03-07T04:23:23;5.60;99.90
19279;DHT22;9773;47.062;15.446;2023-03-07T04:25:50;5.50;99.90
19279;DHT22;9773;47.062;15.446;2023-03-07T04:28:17;5.40;99.90
19279;DHT22;9773;47.062;15.446;2023-03-07T04:30:43;5.40;99.90
19279;DHT22;9773;47.062;15.446;2023-03-07T04:33:09;5.50;99.90
19279;DHT22;9773;47.062;15.446;2023-03-07T04:35:35;5.50;99.90
19279;DHT22;9773;47.062;15.446;2023-03-07T04:38:01;5.50;99.90
19279;DHT22;9773;47.062;15.446;2023-03-07T04:40:27;5.50;99.90
19279;DHT22;9773;47.062;15.446;2023-03-07T04:42:53;5.50;99.90
19279;DHT22;9773;47.062;15.446;2023-03-07T04:45:18;5.50;99.90
19279;DHT22;9773;47.062;15.446;2023-03-07T04:47:44;5.50;99.90
19279;DHT22;9773;47.062;15.446;2023-03-07T04:50:10;5.50;99.90
19279;DHT22;9773;47.062;15.446;2023-03-07T04:52:36;5.50;99.90
19279;DHT22;9773;47.062;15.446;2023-03-07T04:55:01;5.50;99.90
19279;DHT22;9773;47.062;15.446;2023-03-07T04:57:27;5.60;99.90
19279;DHT22;9773;47.062;15.446;2023-03-07T04:59:53;5.50;99.90
19279;DHT22;9773;47.062;15.446;2023-03-07T05:02:19;5.60;99.90
19279;DHT22;9773;47.062;15.446;2023-03-07T05:04:44;5.60;99.90
19279;DHT22;9773;47.062;15.446;2023-03-07T05:07:10;5.60;99.90
19279;DHT22;9773;47.062;15.446;2023-03-07T05:09:36;5.70;99.90
19279;DHT22;9773;47.062;15.446;2023-03-07T05:12:01;5.60;99.90
19279;DHT22;9773;47.062;15.446;2023-03-07T05:14:27;5.60;99.90
19279;DHT22;9773;47.062;15.446;2023-03-07T05:16:53;5.50;99.90
19279;DHT22;9773;47.062;15.446;2023-03-07T05:19:19;5.50;99.90
19279;DHT22;9773;47.062;15.446;2023-03-07T05:21:44;5.60;99.90
19279;DHT22;9773;47.062;15.446;2023-03-07T05:24:12;5.70;99.90
19279;DHT22;9773;47.062;15.446;2023-03-07T05:26:37;5.80;99.90
19279;DHT22;9773;47.062;15.446;2023-03-07T05:29:03;5.70;99.90
19279;DHT22;9773;47.062;15.446;2023-03-07T05:31:29;5.60;99.90
19279;DHT22;9773;47.062;15.446;2023-03-07T05:33:55;5.70;99.90
19279;DHT22;9773;47.062;15.446;2023-03-07T05:36:20;5.60;99.90
19279;DHT22;9773;47.062;15.446;2023-03-07T05:38:46;5.60;99.90
19279;DHT22;9773;47.062;15.446;2023-03-07T05:41:12;5.60;99.90
19279;DHT22;9773;47.062;15.446;2023-03-07T05:43:38;5.50;99.90
19279;DHT22;9773;47.062;15.446;2023-03-07T05:46:04;5.60;99.90
19279;DHT22;9773;47.062;15.446;2023-03-07T05:48:30;5.60;99.90
19279;DHT22;9773;47.062;15.446;2023-03-07T05:50:58;5.60;99.90
19279;DHT22;9773;47.062;15.446;2023-03-07T05:53:25;5.50;99.90
19279;DHT22;9773;47.062;15.446;2023-03-07T05:55:51;5.50;99.90
19279;DHT22;9773;47.062;15.446;2023-03-07T05:58:17;5.50;99.90
19279;DHT22;9773;47.062;15.446;2023-03-07T06:00:43;5.50;99.90
19279;DHT22;9773;47.062;15.446;2023-03-07T06:03:08;5.50;99.90
19279;DHT22;9773;47.062;15.446;2023-03-07T06:05:34;5.60;99.90
19279;DHT22;9773;47.062;15.446;2023-03-07T06:08:00;5.60;99.90
19279;DHT22;9773;47.062;15.446;2023-03-07T06:10:26;5.70;99.90
19279;DHT22;9773;47.062;15.446;2023-03-07T06:12:52;5.60;99.90
19279;DHT22;9773;47.062;15.446;2023-03-07T06:15:19;5.60;99.90
19279;DHT22;9773;47.062;15.446;2023-03-07T06:17:45;5.50;99.90
19279;DHT22;9773;47.062;15.446;2023-03-07T06:20:12;5.50;99.90
19279;DHT22;9773;47.062;15.446;2023-03-07T06:22:38;5.50;99.90
19279;DHT22;9773;47.062;15.446;2023-03-07T06:25:05;5.50;99.90
19279;DHT22;9773;47.062;15.446;2023-03-07T06:27:32;5.40;99.90
19279;DHT22;9773;47.062;15.446;2023-03-07T06:29:58;5.40;99.90
19279;DHT22;9773;47.062;15.446;2023-03-07T06:32:23;5.50;99.90
19279;DHT22;9773;47.062;15.446;2023-03-07T06:34:49;5.40;99.90
19279;DHT22;9773;47.062;15.446;2023-03-07T06:37:15;5.40;99.90
19279;DHT22;9773;47.062;15.446;2023-03-07T06:39:41;5.40;99.90
19279;DHT22;9773;47.062;15.446;2023-03-07T06:42:07;5.50;99.90
19279;DHT22;9773;47.062;15.446;2023-03-07T06:44:33;5.50;99.90
19279;DHT22;9773;47.062;15.446;2023-03-07T06:46:59;5.50;99.90
19279;DHT22;9773;47.062;15.446;2023-03-07T06:49:25;5.30;99.90
19279;DHT22;9773;47.062;15.446;2023-03-07T06:51:50;5.30;99.90
19279;DHT22;9773;47.062;15.446;2023-03-07T06:54:17;5.20;99.90
19279;DHT22;9773;47.062;15.446;2023-03-07T06:56:43;5.30;99.90
19279;DHT22;9773;47.062;15.446;2023-03-07T06:59:09;5.40;99.90
19279;DHT22;9773;47.062;15.446;2023-03-07T07:01:35;5.40;99.90
19279;DHT22;9773;47.062;15.446;2023-03-07T07:04:02;5.40;99.90
19279;DHT22;9773;47.062;15.446;2023-03-07T07:06:28;5.40;99.90
19279;DHT22;9773;47.062;15.446;2023-03-07T07:08:55;5.30;99.90
19279;DHT22;9773;47.062;15.446;2023-03-07T07:11:22;5.40;99.90
19279;DHT22;9773;47.062;15.446;2023-03-07T07:13:48;5.50;99.90
19279;DHT22;9773;47.062;15.446;2023-03-07T07:16:15;5.60;99.90
19279;DHT22;9773;47.062;15.446;2023-03-07T07:18:42;5.60;99.90
19279;DHT22;9773;47.062;15.446;2023-03-07T07:21:08;5.60;99.90
19279;DHT22;9773;47.062;15.446;2023-03-07T07:23:34;5.60;99.90
19279;DHT22;9773;47.062;15.446;2023-03-07T07:26:00;5.60;99.90
19279;DHT22;9773;47.062;15.446;2023-03-07T07:28:26;5.70;99.90
19279;DHT22;9773;47.062;15.446;2023-03-07T07:30:52;5.60;99.90
19279;DHT22;9773;47.062;15.446;2023-03-07T07:33:18;5.60;99.90
19279;DHT22;9773;47.062;15.446;2023-03-07T07:35:45;5.70;99.90
19279;DHT22;9773;47.062;15.446;2023-03-07T07:38:12;5.70;99.90
19279;DHT22;9773;47.062;15.446;2023-03-07T07:40:38;5.60;99.90
19279;DHT22;9773;47.062;15.446;2023-03-07T07:43:04;5.60;99.90
19279;DHT22;9773;47.062;15.446;2023-03-07T07:45:30;5.50;99.90
19279;DHT22;9773;47.062;15.446;2023-03-07T07:47:56;5.60;99.90
19279;DHT22;9773;47.062;15.446;2023-03-07T07:50:22;5.60;99.90
19279;DHT22;9773;47.062;15.446;2023-03-07T07:52:51;5.50;99.90
19279;DHT22;9773;47.062;15.446;2023-03-07T07:55:17;5.60;99.90
19279;DHT22;9773;47.062;15.446;2023-03-07T07:57:42;5.70;99.90
19279;DHT22;9773;47.062;15.446;2023-03-07T08:00:10;5.70;99.90
19279;DHT22;9773;47.062;15.446;2023-03-07T08:02:37;5.70;99.90
19279;DHT22;9773;47.062;15.446;2023-03-07T08:05:06;5.90;99.90
19279;DHT22;9773;47.062;15.446;2023-03-07T08:07:32;5.90;99.90
19279;DHT22;9773;47.062;15.446;2023-03-07T08:09:57;6.00;99.90
19279;DHT22;9773;47.062;15.446;2023-03-07T08:12:23;6.00;99.90
19279;DHT22;9773;47.062;15.446;2023-03-07T08:14:49;5.90;99.90
19279;DHT22;9773;47.062;15.446;2023-03-07T08:17:15;5.90;99.90
19279;DHT22;9773;47.062;15.446;2023-03-07T08:19:40;5.80;99.90
19279;DHT22;9773;47.062;15.446;2023-03-07T08:22:06;5.80;99.90
19279;DHT22;9773;47.062;15.446;2023-03-07T08:24:32;5.70;99.90
19279;DHT22;9773;47.062;15.446;2023-03-07T08:26:59;5.70;99.90
19279;DHT22;9773;47.062;15.446;2023-03-07T08:29:26;5.90;99.90
19279;DHT22;9773;47.062;15.446;2023-03-07T08:31:52;5.90;99.90
19279;DHT22;9773;47.062;15.446;2023-03-07T08:34:19;5.90;99.90
19279;DHT22;9773;47.062;15.446;2023-03-07T08:36:45;5.90;99.90
19279;DHT22;9773;47.062;15.446;2023-03-07T08:39:11;5.90;99.90
19279;DHT22;9773;47.062;15.446;2023-03-07T08:41:37;5.70;99.90
19279;DHT22;9773;47.062;15.446;2023-03-07T08:44:03;5.60;99.90
19279;DHT22;9773;47.062;15.446;2023-03-07T08:46:29;5.70;99.90
19279;DHT22;9773;47.062;15.446;2023-03-07T08:49:02;5.70;99.90
19279;DHT22;9773;47.062;15.446;2023-03-07T08:51:28;5.70;99.90
19279;DHT22;9773;47.062;15.446;2023-03-07T08:53:54;5.80;99.90
19279;DHT22;9773;47.062;15.446;2023-03-07T08:56:20;5.80;99.90
19279;DHT22;9773;47.062;15.446;2023-03-07T08:58:46;5.90;99.90
19279;DHT22;9773;47.062;15.446;2023-03-07T09:01:12;6.00;99.90
19279;DHT22;9773;47.062;15.446;2023-03-07T09:03:38;5.90;99.90
19279;DHT22;9773;47.062;15.446;2023-03-07T09:06:04;5.70;99.90
19279;DHT22;9773;47.062;15.446;2023-03-07T09:08:30;5.80;99.90
19279;DHT22;9773;47.062;15.446;2023-03-07T09:10:59;5.90;99.90
19279;DHT22;9773;47.062;15.446;2023-03-07T09:13:25;5.80;99.90
19279;DHT22;9773;47.062;15.446;2023-03-07T09:15:51;5.90;99.90
19279;DHT22;9773;47.062;15.446;2023-03-07T09:18:17;5.80;99.90
19279;DHT22;9773;47.062;15.446;2023-03-07T09:20:43;5.70;99.90
19279;DHT22;9773;47.062;15.446;2023-03-07T09:23:09;5.80;99.90
19279;DHT22;9773;47.062;15.446;2023-03-07T09:25:35;5.80;99.90
19279;DHT22;9773;47.062;15.446;2023-03-07T09:28:01;5.90;99.90
19279;DHT22;9773;47.062;15.446;2023-03-07T09:30:28;5.90;99.90
19279;DHT22;9773;47.062;15.446;2023-03-07T09:32:54;5.90;99.90
19279;DHT22;9773;47.062;15.446;2023-03-07T09:35:21;5.80;99.90
19279;DHT22;9773;47.062;15.446;2023-03-07T09:37:47;5.80;99.90
19279;DHT22;9773;47.062;15.446;2023-03-07T09:40:19;5.80;99.90
19279;DHT22;9773;47.062;15.446;2023-03-07T09:43:02;5.80;99.90
19279;DHT22;9773;47.062;15.446;2023-03-07T09:48:54;5.90;99.90
19279;DHT22;9773;47.062;15.446;2023-03-07T09:51:30;5.80;99.90
19279;DHT22;9773;47.062;15.446;2023-03-07T09:56:44;5.80;99.90
19279;DHT22;9773;47.062;15.446;2023-03-07T09:59:46;5.70;99.90
19279;DHT22;9773;47.062;15.446;2023-03-07T10:02:32;5.70;99.90
19279;DHT22;9773;47.062;15.446;2023-03-07T10:07:45;5.70;99.90
19279;DHT22;9773;47.062;15.446;2023-03-07T10:10:18;5.70;99.90
19279;DHT22;9773;47.062;15.446;2023-03-07T10:15:44;5.60;99.90
19279;DHT22;9773;47.062;15.446;2023-03-07T10:21:32;5.80;99.90
19279;DHT22;9773;47.062;15.446;2023-03-07T10:27:12;6.00;99.90
19279;DHT22;9773;47.062;15.446;2023-03-07T10:29:50;6.00;99.90
19279;DHT22;9773;47.062;15.446;2023-03-07T10:32:20;6.10;99.90
19279;DHT22;9773;47.062;15.446;2023-03-07T10:34:58;6.10;99.90
19279;DHT22;9773;47.062;15.446;2023-03-07T10:40:49;6.10;99.90
19279;DHT22;9773;47.062;15.446;2023-03-07T10:43:31;6.10;99.90
19279;DHT22;9773;47.062;15.446;2023-03-07T10:46:18;6.20;99.90
19279;DHT22;9773;47.062;15.446;2023-03-07T10:48:51;6.10;99.90
19279;DHT22;9773;47.062;15.446;2023-03-07T10:51:52;5.90;99.90
19279;DHT22;9773;47.062;15.446;2023-03-07T10:54:27;5.90;99.90
19279;DHT22;9773;47.062;15.446;2023-03-07T10:57:08;5.90;99.90
19279;DHT22;9773;47.062;15.446;2023-03-07T10:59:36;6.00;99.90
19279;DHT22;9773;47.062;15.446;2023-03-07T11:04:53;6.00;99.90
19279;DHT22;9773;47.062;15.446;2023-03-07T11:07:35;6.10;99.90
19279;DHT22;9773;47.062;15.446;2023-03-07T11:10:30;6.00;99.90
19279;DHT22;9773;47.062;15.446;2023-03-07T11:13:27;6.10;99.90
19279;DHT22;9773;47.062;15.446;2023-03-07T11:16:15;6.10;99.90
19279;DHT22;9773;47.062;15.446;2023-03-07T11:18:44;6.10;99.90
19279;DHT22;9773;47.062;15.446;2023-03-07T11:24:58;6.20;99.90
19279;DHT22;9773;47.062;15.446;2023-03-07T11:27:05;6.20;99.90
19279;DHT22;9773;47.062;15.446;2023-03-07T11:29:31;6.20;99.90
19279;DHT22;9773;47.062;15.446;2023-03-07T11:32:19;6.20;99.90
19279;DHT22;9773;47.062;15.446;2023-03-07T11:34:58;6.20;99.90
19279;DHT22;9773;47.062;15.446;2023-03-07T11:37:46;6.20;99.90
19279;DHT22;9773;47.062;15.446;2023-03-07T11:40:20;6.20;99.90
19279;DHT22;9773;47.062;15.446;2023-03-07T12:08:57;6.00;99.90
19279;DHT22;9773;47.062;15.446;2023-03-07T12:23:03;6.10;99.90
19279;DHT22;9773;47.062;15.446;2023-03-07T12:25:42;6.20;99.90
19279;DHT22;9773;47.062;15.446;2023-03-07T12:31:21;6.30;99.90
19279;DHT22;9773;47.062;15.446;2023-03-07T12:37:08;6.40;99.90
19279;DHT22;9773;47.062;15.446;2023-03-07T12:42:56;6.60;99.90
19279;DHT22;9773;47.062;15.446;2023-03-07T12:45:26;6.50;99.90
19279;DHT22;9773;47.062;15.446;2023-03-07T12:53:27;6.70;99.90
19279;DHT22;9773;47.062;15.446;2023-03-07T12:55:59;6.80;99.90
19279;DHT22;9773;47.062;15.446;2023-03-07T13:01:37;6.60;99.90
19279;DHT22;9773;47.062;15.446;2023-03-07T13:06:31;6.40;99.90
19279;DHT22;9773;47.062;15.446;2023-03-07T13:09:00;6.20;99.90
19279;DHT22;9773;47.062;15.446;2023-03-07T13:11:30;6.00;99.90
19279;DHT22;9773;47.062;15.446;2023-03-07T13:13:59;5.90;99.90
19279;DHT22;9773;47.062;15.446;2023-03-07T13:24:45;6.00;99.90
19279;DHT22;9773;47.062;15.446;2023-03-07T13:27:21;6.10;99.90
19279;DHT22;9773;47.062;15.446;2023-03-07T13:41:03;6.10;99.90
19279;DHT22;9773;47.062;15.446;2023-03-07T13:45:56;6.30;99.90
19279;DHT22;9773;47.062;15.446;2023-03-07T13:58:37;6.30;99.90
19279;DHT22;9773;47.062;15.446;2023-03-07T14:06:15;6.20;99.90
19279;DHT22;9773;47.062;15.446;2023-03-07T14:08:43;6.20;99.90
19279;DHT22;9773;47.062;15.446;2023-03-07T14:11:19;6.10;99.90
19279;DHT22;9773;47.062;15.446;2023-03-07T14:22:00;6.20;99.90
19279;DHT22;9773;47.062;15.446;2023-03-07T14:25:31;6.20;99.90
19279;DHT22;9773;47.062;15.446;2023-03-07T14:27:25;6.20;99.90
19279;DHT22;9773;47.062;15.446;2023-03-07T14:29:53;6.30;99.90
19279;DHT22;9773;47.062;15.446;2023-03-07T14:32:30;6.40;99.90
19279;DHT22;9773;47.062;15.446;2023-03-07T14:34:56;6.30;99.90
19279;DHT22;9773;47.062;15.446;2023-03-07T14:37:26;6.30;99.90
19279;DHT22;9773;47.062;15.446;2023-03-07T14:45:12;6.20;99.90
19279;DHT22;9773;47.062;15.446;2023-03-07T14:50:24;6.10;99.90
19279;DHT22;9773;47.062;15.446;2023-03-07T14:52:55;6.20;99.90
19279;DHT22;9773;47.062;15.446;2023-03-07T14:55:24;6.10;99.90
19279;DHT22;9773;47.062;15.446;2023-03-07T14:57:53;6.10;99.90
19279;DHT22;9773;47.062;15.446;2023-03-07T15:03:10;6.20;99.90
19279;DHT22;9773;47.062;15.446;2023-03-07T15:05:57;6.20;99.90
19279;DHT22;9773;47.062;15.446;2023-03-07T15:08:27;6.20;99.90
19279;DHT22;9773;47.062;15.446;2023-03-07T15:14:05;6.40;99.90
19279;DHT22;9773;47.062;15.446;2023-03-07T15:16:39;6.30;99.90
19279;DHT22;9773;47.062;15.446;2023-03-07T15:22:00;6.30;99.90
19279;DHT22;9773;47.062;15.446;2023-03-07T15:24:32;6.30;99.90
19279;DHT22;9773;47.062;15.446;2023-03-07T15:26:58;6.20;99.90
19279;DHT22;9773;47.062;15.446;2023-03-07T15:29:29;6.30;99.90
19279;DHT22;9773;47.062;15.446;2023-03-07T15:31:56;6.40;99.90
19279;DHT22;9773;47.062;15.446;2023-03-07T15:34:29;6.30;99.90
19279;DHT22;9773;47.062;15.446;2023-03-07T15:37:24;6.20;99.90
19279;DHT22;9773;47.062;15.446;2023-03-07T15:42:46;6.10;99.90
19279;DHT22;9773;47.062;15.446;2023-03-07T15:45:35;6.00;99.90
19279;DHT22;9773;47.062;15.446;2023-03-07T15:48:37;6.10;99.90
19279;DHT22;9773;47.062;15.446;2023-03-07T15:51:15;6.20;99.90
19279;DHT22;9773;47.062;15.446;2023-03-07T15:53:41;6.10;99.90
19279;DHT22;9773;47.062;15.446;2023-03-07T15:56:37;6.20;99.90
19279;DHT22;9773;47.062;15.446;2023-03-07T16:01:48;6.20;99.90
19279;DHT22;9773;47.062;15.446;2023-03-07T16:07:03;6.20;99.90
19279;DHT22;9773;47.062;15.446;2023-03-07T16:09:30;6.20;99.90
19279;DHT22;9773;47.062;15.446;2023-03-07T16:11:56;6.20;99.90
19279;DHT22;9773;47.062;15.446;2023-03-07T16:14:31;6.10;99.90
19279;DHT22;9773;47.062;15.446;2023-03-07T16:16:59;6.10;99.90
19279;DHT22;9773;47.062;15.446;2023-03-07T16:19:26;6.00;99.90
19279;DHT22;9773;47.062;15.446;2023-03-07T16:21:52;6.00;99.90
19279;DHT22;9773;47.062;15.446;2023-03-07T16:24:18;6.00;99.90
19279;DHT22;9773;47.062;15.446;2023-03-07T16:26:45;6.10;99.90
19279;DHT22;9773;47.062;15.446;2023-03-07T16:29:16;6.20;99.90
19279;DHT22;9773;47.062;15.446;2023-03-07T16:31:42;6.10;99.90
19279;DHT22;9773;47.062;15.446;2023-03-07T16:34:20;5.90;99.90
19279;DHT22;9773;47.062;15.446;2023-03-07T16:36:46;5.90;99.90
19279;DHT22;9773;47.062;15.446;2023-03-07T16:39:13;5.90;99.90
19279;DHT22;9773;47.062;15.446;2023-03-07T16:41:47;5.90;99.90
19279;DHT22;9773;47.062;15.446;2023-03-07T16:44:19;5.90;99.90
19279;DHT22;9773;47.062;15.446;2023-03-07T16:47:00;5.80;99.90
19279;DHT22;9773;47.062;15.446;2023-03-07T16:49:28;5.80;99.90
19279;DHT22;9773;47.062;15.446;2023-03-07T16:51:54;5.80;99.90
19279;DHT22;9773;47.062;15.446;2023-03-07T16:54:20;5.70;99.90
19279;DHT22;9773;47.062;15.446;2023-03-07T16:56:50;5.70;99.90
19279;DHT22;9773;47.062;15.446;2023-03-07T16:59:20;5.80;99.90
19279;DHT22;9773;47.062;15.446;2023-03-07T17:01:48;5.80;99.90
19279;DHT22;9773;47.062;15.446;2023-03-07T17:04:15;5.90;99.90
19279;DHT22;9773;47.062;15.446;2023-03-07T17:06:41;5.90;99.90
19279;DHT22;9773;47.062;15.446;2023-03-07T17:09:10;5.90;99.90
19279;DHT22;9773;47.062;15.446;2023-03-07T17:11:45;5.90;99.90
19279;DHT22;9773;47.062;15.446;2023-03-07T17:14:14;5.90;99.90
19279;DHT22;9773;47.062;15.446;2023-03-07T17:16:46;5.90;99.90
19279;DHT22;9773;47.062;15.446;2023-03-07T17:19:24;5.90;99.90
19279;DHT22;9773;47.062;15.446;2023-03-07T17:21:50;5.80;99.90
19279;DHT22;9773;47.062;15.446;2023-03-07T17:24:16;5.80;99.90
19279;DHT22;9773;47.062;15.446;2023-03-07T17:26:43;5.90;99.90
19279;DHT22;9773;47.062;15.446;2023-03-07T17:29:26;6.00;99.90
19279;DHT22;9773;47.062;15.446;2023-03-07T17:31:53;6.00;99.90
19279;DHT22;9773;47.062;15.446;2023-03-07T17:34:28;5.90;99.90
19279;DHT22;9773;47.062;15.446;2023-03-07T17:36:54;5.90;99.90
19279;DHT22;9773;47.062;15.446;2023-03-07T17:39:20;5.90;99.90
19279;DHT22;9773;47.062;15.446;2023-03-07T17:41:47;5.90;99.90
19279;DHT22;9773;47.062;15.446;2023-03-07T17:44:13;5.80;99.90
19279;DHT22;9773;47.062;15.446;2023-03-07T17:46:39;5.90;99.90
19279;DHT22;9773;47.062;15.446;2023-03-07T17:49:05;6.00;99.90
19279;DHT22;9773;47.062;15.446;2023-03-07T17:51:32;6.00;99.90
19279;DHT22;9773;47.062;15.446;2023-03-07T17:53:58;5.90;99.90
19279;DHT22;9773;47.062;15.446;2023-03-07T17:56:24;5.90;99.90
19279;DHT22;9773;47.062;15.446;2023-03-07T17:58:50;5.90;99.90
19279;DHT22;9773;47.062;15.446;2023-03-07T18:01:16;5.90;99.90
19279;DHT22;9773;47.062;15.446;2023-03-07T18:03:43;5.90;99.90
19279;DHT22;9773;47.062;15.446;2023-03-07T18:06:09;6.00;99.90
19279;DHT22;9773;47.062;15.446;2023-03-07T18:08:36;6.00;99.90
19279;DHT22;9773;47.062;15.446;2023-03-07T18:11:10;5.90;99.90
19279;DHT22;9773;47.062;15.446;2023-03-07T18:13:37;6.00;99.90
19279;DHT22;9773;47.062;15.446;2023-03-07T18:16:05;5.90;99.90
19279;DHT22;9773;47.062;15.446;2023-03-07T18:18:33;5.80;99.90
19279;DHT22;9773;47.062;15.446;2023-03-07T18:21:03;5.70;99.90
19279;DHT22;9773;47.062;15.446;2023-03-07T18:23:30;5.80;99.90
19279;DHT22;9773;47.062;15.446;2023-03-07T18:26:09;5.80;99.90
19279;DHT22;9773;47.062;15.446;2023-03-07T18:28:38;5.80;99.90
19279;DHT22;9773;47.062;15.446;2023-03-07T18:31:11;5.80;99.90
19279;DHT22;9773;47.062;15.446;2023-03-07T18:33:37;5.80;99.90
19279;DHT22;9773;47.062;15.446;2023-03-07T18:36:06;5.80;99.90